Sierra City, California
Current Conditions -  °F | °C
As of 4:06 AM on Saturday 01 Nov 2014 (Local Time) from KBLU Reporting Station
Light Snow Light Snow  
Wind Chill: 27°   Ceiling: 400
Heat Index: 34°   Visibility: 0.75mi
Dew Point: 31°   Wind: 8mph
Humidity: 89%   Direction: 190°S
Pressure: 29.72"   Gusts: NA
Location:  39.57°N, 120.64°W
Report Text: KBLU 011106Z AUTO 19007KT 3/4SM -SN BR VV004 01/M01 A2972 RMK AO2 P0003 T00111006
Loading
Personal Weather Stations






























Interactive Weather Map
Tropical Storm Tracking
New forecast layout! Learn more

10-Day Weather Forecast

Advertisements
Track Severe Weather on mobile